This is the latest recevied weather packets stored in our database for station/object W4KAB. If no packets are shown the sender has not sent any weather packets the latest 10 day(s).
| Time | Temp. | Humidity | Pressure | Rain* | Wind** | Luminosity | Snow |
|---|---|---|---|---|---|---|---|
| 1777837664 | 20° C | 24% | 1018.2 hPa | 0 mm | - | 662 W/m² | - |
| 1777836752 | 20.56° C | 25% | 1018.5 hPa | 0 mm | - | 689 W/m² | - |
| 1777835840 | 20° C | 26% | 1018.8 hPa | 0 mm | - | 713 W/m² | - |
| 1777835537 | 19.44° C | 26% | 1018.7 hPa | 0 mm | - | 710 W/m² | - |
| 1777834628 | 19.44° C | 29% | 1018.7 hPa | 0 mm | - | 745 W/m² | - |
| 1777833108 | 18.89° C | 32% | 1019.4 hPa | 0 mm | - | 776 W/m² | - |
| 1777832806 | 19.44° C | 29% | 1019.4 hPa | 0 mm | - | 771 W/m² | - |
| 1777832504 | 17.78° C | 35% | 1019.4 hPa | 0 mm | - | 752 W/m² | - |
| 1777831898 | 18.33° C | 29% | 1019.7 hPa | 0 mm | - | 747 W/m² | - |
| 1777831293 | 17.78° C | 32% | 1019.8 hPa | 0 mm | - | 779 W/m² | - |
| 1777829775 | 17.78° C | 33% | 1020 hPa | 0 mm | - | 734 W/m² | - |
| 1777829169 | 17.78° C | 32% | 1020.3 hPa | 0 mm | - | 757 W/m² | - |
| 1777827956 | 17.22° C | 31% | 1020.4 hPa | 0 mm | - | 787 W/m² | - |
| 1777827351 | 17.22° C | 29% | 1020.5 hPa | 0 mm | - | 791 W/m² | - |
| 1777827047 | 17.22° C | 30% | 1020.6 hPa | 0 mm | - | 796 W/m² | - |
| 1777826441 | 17.22° C | 29% | 1020.5 hPa | 0 mm | - | 789 W/m² | - |
| 1777826138 | 17.22° C | 31% | 1021.1 hPa | 0 mm | - | 762 W/m² | - |
| 1777825835 | 16.67° C | 33% | 1020.9 hPa | 0 mm | - | 737 W/m² | - |
| 1777825230 | 16.67° C | 35% | 1021 hPa | 0 mm | - | 776 W/m² | - |
| 1777823107 | 15° C | 37% | 1021.7 hPa | 0 mm | - | 787 W/m² | - |
| 1777820989 | 12.78° C | 42% | 1021.6 hPa | 0 mm | - | 770 W/m² | - |
| 1777818564 | 11.11° C | 45% | 1021.8 hPa | 0 mm | - | 28 W/m² | - |
| 1777816140 | 10° C | 53% | 1021.8 hPa | 0 mm | - | 29 W/m² | - |
| 1777814928 | 8.89° C | 60% | 1021.6 hPa | 0 mm | - | 27 W/m² | - |
| 1777813110 | 8.33° C | 64% | 1021.7 hPa | 0 mm | - | 19 W/m² | - |
* Rain latest hour (hover to see other rain measurements)
** Current wind speed in m/s (hover to see current wind gust speed)